This is the latest recevied weather packets stored in our database for station/object KI5NXU. If no packets are shown the sender has not sent any weather packets the latest 10 day(s).
| Time | Temp. | Humidity | Pressure | Rain* | Wind** | Luminosity | Snow |
|---|---|---|---|---|---|---|---|
| 1777955845 | 24.44° C | 70% | 1004.2 hPa | 0 mm | - | 0 W/m² | - |
| 1777955542 | 24.44° C | 70% | 1004.3 hPa | 0 mm | - | 0 W/m² | - |
| 1777955238 | 25° C | 69% | 1004.2 hPa | 0 mm | - | 0 W/m² | - |
| 1777954936 | 25° C | 70% | 1004.2 hPa | 0 mm | - | 0 W/m² | - |
| 1777954632 | 25° C | 70% | 1004.1 hPa | 0 mm | - | 0 W/m² | - |
| 1777954329 | 25° C | 70% | 1004.4 hPa | 0 mm | - | 0 W/m² | - |
| 1777954026 | 25° C | 69% | 1004.1 hPa | 0 mm | - | 0 W/m² | - |
| 1777953420 | 25° C | 69% | 1004.2 hPa | 0 mm | - | 0 W/m² | - |
| 1777943725 | 25.56° C | 69% | 1003.9 hPa | 0 mm | - | 0 W/m² | - |
| 1777943423 | 25.56° C | 68% | 1003.9 hPa | 0 mm | - | 1 W/m² | - |
| 1777943118 | 25.56° C | 68% | 1003.9 hPa | 0 mm | - | 3 W/m² | - |
| 1777941906 | 26.11° C | 66% | 1004 hPa | 0 mm | - | 19 W/m² | - |
| 1777940692 | 26.67° C | 64% | 1004.2 hPa | 0 mm | - | 44 W/m² | - |
| 1777940088 | 27.22° C | 64% | 1004.4 hPa | 0 mm | - | 56 W/m² | - |
| 1777936754 | 28.33° C | 60% | 1004.4 hPa | 0 mm | - | 142 W/m² | - |
| 1777934329 | 29.44° C | 56% | 1004.9 hPa | 0 mm | - | 200 W/m² | - |
| 1777934025 | 30° C | 55% | 1004.8 hPa | 0 mm | - | 233 W/m² | - |
| 1777933117 | 29.44° C | 56% | 1004.6 hPa | 0 mm | - | 270 W/m² | - |
| 1777932813 | 29.44° C | 56% | 1004.7 hPa | 0 mm | - | 207 W/m² | - |
| 1777932510 | 30° C | 54% | 1004.6 hPa | 0 mm | - | 275 W/m² | - |
| 1777931904 | 30° C | 55% | 1005.1 hPa | 0 mm | - | 418 W/m² | - |
| 1777930994 | 30.56° C | 52% | 1005 hPa | 0 mm | - | 443 W/m² | - |
| 1777930084 | 30.56° C | 52% | 1005.3 hPa | 0 mm | - | 469 W/m² | - |
| 1777929780 | 30.56° C | 53% | 1005.4 hPa | 0 mm | - | 356 W/m² | - |
| 1777929478 | 29.44° C | 54% | 1005.5 hPa | 0 mm | - | 432 W/m² | - |
* Rain latest hour (hover to see other rain measurements)
** Current wind speed in m/s (hover to see current wind gust speed)